sensor_id;sensor_type;location;lat;lon;timestamp;pressure;altitude;pressure_sealevel;temperature;humidity
65666;BME280;52365;47.464;18.976;2023-04-01T00:00:20;98435.25;;;12.03;71.90
65666;BME280;52365;47.464;18.976;2023-04-01T00:00:58;98433.72;;;12.19;71.36
65666;BME280;52365;47.464;18.976;2023-04-01T00:01:34;98430.75;;;12.28;71.03
65666;BME280;52365;47.464;18.976;2023-04-01T00:02:10;98435.59;;;12.41;70.29
65666;BME280;52365;47.464;18.976;2023-04-01T00:02:46;98434.41;;;12.37;70.06
65666;BME280;52365;47.464;18.976;2023-04-01T00:03:24;98431.94;;;12.39;70.12
65666;BME280;52365;47.464;18.976;2023-04-01T00:04:01;98433.69;;;12.30;70.16
65666;BME280;52365;47.464;18.976;2023-04-01T00:04:37;98430.75;;;12.28;70.26
65666;BME280;52365;47.464;18.976;2023-04-01T00:05:14;98432.91;;;12.47;70.05
65666;BME280;52365;47.464;18.976;2023-04-01T00:05:52;98432.63;;;12.50;69.73
65666;BME280;52365;47.464;18.976;2023-04-01T00:06:28;98438.84;;;12.34;69.73
65666;BME280;52365;47.464;18.976;2023-04-01T00:07:04;98439.59;;;12.23;70.14
65666;BME280;52365;47.464;18.976;2023-04-01T00:07:40;98426.56;;;12.27;70.47
65666;BME280;52365;47.464;18.976;2023-04-01T00:08:16;98435.19;;;12.26;70.48
65666;BME280;52365;47.464;18.976;2023-04-01T00:08:53;98444.50;;;12.30;70.42
65666;BME280;52365;47.464;18.976;2023-04-01T00:09:29;98435.84;;;12.43;70.03
65666;BME280;52365;47.464;18.976;2023-04-01T00:10:07;98439.59;;;12.34;69.94
65666;BME280;52365;47.464;18.976;2023-04-01T00:10:44;98442.22;;;12.51;69.80
65666;BME280;52365;47.464;18.976;2023-04-01T00:11:20;98441.00;;;12.41;69.77
65666;BME280;52365;47.464;18.976;2023-04-01T00:11:56;98447.88;;;12.48;69.66
65666;BME280;52365;47.464;18.976;2023-04-01T00:12:32;98442.03;;;12.32;69.77
65666;BME280;52365;47.464;18.976;2023-04-01T00:13:09;98437.66;;;12.18;70.41
65666;BME280;52365;47.464;18.976;2023-04-01T00:13:45;98433.50;;;12.17;70.61
65666;BME280;52365;47.464;18.976;2023-04-01T00:14:21;98441.62;;;12.06;70.88
65666;BME280;52365;47.464;18.976;2023-04-01T00:14:57;98435.00;;;12.01;71.30
65666;BME280;52365;47.464;18.976;2023-04-01T00:15:33;98434.56;;;11.86;71.71
65666;BME280;52365;47.464;18.976;2023-04-01T00:16:10;98435.03;;;11.84;72.11
65666;BME280;52365;47.464;18.976;2023-04-01T00:16:46;98429.63;;;11.79;72.39
65666;BME280;52365;47.464;18.976;2023-04-01T00:17:22;98428.41;;;11.80;72.60
65666;BME280;52365;47.464;18.976;2023-04-01T00:17:58;98429.16;;;11.75;72.72
65666;BME280;52365;47.464;18.976;2023-04-01T00:18:34;98432.84;;;11.66;73.12
65666;BME280;52365;47.464;18.976;2023-04-01T00:19:11;98424.00;;;11.54;73.53
65666;BME280;52365;47.464;18.976;2023-04-01T00:19:47;98427.69;;;11.57;73.63
65666;BME280;52365;47.464;18.976;2023-04-01T00:20:23;98428.19;;;11.72;73.47
65666;BME280;52365;47.464;18.976;2023-04-01T00:20:59;98437.47;;;11.94;72.93
65666;BME280;52365;47.464;18.976;2023-04-01T00:21:36;98443.78;;;12.19;71.95
65666;BME280;52365;47.464;18.976;2023-04-01T00:22:12;98441.34;;;12.21;71.23
65666;BME280;52365;47.464;18.976;2023-04-01T00:22:48;98443.06;;;12.18;70.97
65666;BME280;52365;47.464;18.976;2023-04-01T00:23:25;98435.25;;;11.98;71.33
65666;BME280;52365;47.464;18.976;2023-04-01T00:24:02;98432.59;;;11.70;72.14
65666;BME280;52365;47.464;18.976;2023-04-01T00:24:38;98431.87;;;11.47;72.95
65666;BME280;52365;47.464;18.976;2023-04-01T00:25:14;98427.47;;;11.44;73.51
65666;BME280;52365;47.464;18.976;2023-04-01T00:25:50;98425.75;;;11.52;73.71
65666;BME280;52365;47.464;18.976;2023-04-01T00:26:26;98431.87;;;11.52;73.62
65666;BME280;52365;47.464;18.976;2023-04-01T00:27:03;98429.66;;;11.45;73.78
65666;BME280;52365;47.464;18.976;2023-04-01T00:27:40;98430.91;;;11.55;73.87
65666;BME280;52365;47.464;18.976;2023-04-01T00:28:17;98424.78;;;11.55;73.95
65666;BME280;52365;47.464;18.976;2023-04-01T00:28:53;98432.13;;;11.38;74.39
65666;BME280;52365;47.464;18.976;2023-04-01T00:29:29;98427.72;;;11.29;74.90
65666;BME280;52365;47.464;18.976;2023-04-01T00:30:06;98435.06;;;11.56;74.57
65666;BME280;52365;47.464;18.976;2023-04-01T00:30:43;98426.94;;;11.62;74.20
65666;BME280;52365;47.464;18.976;2023-04-01T00:31:19;98433.59;;;11.72;73.83
65666;BME280;52365;47.464;18.976;2023-04-01T00:31:56;98426.22;;;11.73;73.54
65666;BME280;52365;47.464;18.976;2023-04-01T00:32:33;98431.37;;;11.59;73.77
65666;BME280;52365;47.464;18.976;2023-04-01T00:33:10;98423.78;;;11.47;74.06
65666;BME280;52365;47.464;18.976;2023-04-01T00:33:46;98423.78;;;11.41;74.38
65666;BME280;52365;47.464;18.976;2023-04-01T00:34:23;98417.38;;;11.50;74.46
65666;BME280;52365;47.464;18.976;2023-04-01T00:34:59;98419.38;;;11.55;74.32
65666;BME280;52365;47.464;18.976;2023-04-01T00:35:35;98417.63;;;11.63;74.04
65666;BME280;52365;47.464;18.976;2023-04-01T00:36:17;98416.16;;;11.62;73.92
65666;BME280;52365;47.464;18.976;2023-04-01T00:36:54;98424.75;;;11.60;74.03
65666;BME280;52365;47.464;18.976;2023-04-01T00:37:30;98412.97;;;11.52;74.21
65666;BME280;52365;47.464;18.976;2023-04-01T00:38:06;98418.63;;;11.60;74.22
65666;BME280;52365;47.464;18.976;2023-04-01T00:38:43;98414.47;;;11.48;74.40
65666;BME280;52365;47.464;18.976;2023-04-01T00:39:22;98423.03;;;11.41;74.75
65666;BME280;52365;47.464;18.976;2023-04-01T00:39:58;98421.34;;;11.38;74.95
65666;BME280;52365;47.464;18.976;2023-04-01T00:40:43;98422.06;;;11.21;75.39
65666;BME280;52365;47.464;18.976;2023-04-01T00:41:20;98414.69;;;11.50;75.20
65666;BME280;52365;47.464;18.976;2023-04-01T00:41:57;98414.69;;;11.50;74.60
65666;BME280;52365;47.464;18.976;2023-04-01T00:42:33;98413.22;;;11.49;74.55
65666;BME280;52365;47.464;18.976;2023-04-01T00:43:16;98415.69;;;11.47;74.43
65666;BME280;52365;47.464;18.976;2023-04-01T00:44:15;98415.22;;;11.43;74.68
65666;BME280;52365;47.464;18.976;2023-04-01T00:44:54;98415.69;;;11.47;74.78
65666;BME280;52365;47.464;18.976;2023-04-01T00:45:36;98411.78;;;11.42;74.76
65666;BME280;52365;47.464;18.976;2023-04-01T00:46:14;98409.56;;;11.46;74.87
65666;BME280;52365;47.464;18.976;2023-04-01T00:46:50;98413.72;;;11.47;74.85
65666;BME280;52365;47.464;18.976;2023-04-01T00:47:28;98414.72;;;11.39;74.84
65666;BME280;52365;47.464;18.976;2023-04-01T00:48:09;98416.19;;;11.34;75.03
65666;BME280;52365;47.464;18.976;2023-04-01T00:48:51;98419.12;;;11.36;75.09
65666;BME280;52365;47.464;18.976;2023-04-01T00:49:39;98407.84;;;11.38;75.06
65666;BME280;52365;47.464;18.976;2023-04-01T00:50:16;98412.50;;;11.37;75.00
65666;BME280;52365;47.464;18.976;2023-04-01T00:50:58;98410.78;;;11.12;75.46
65666;BME280;52365;47.464;18.976;2023-04-01T00:51:37;98413.50;;;11.12;75.91
65666;BME280;52365;47.464;18.976;2023-04-01T00:52:17;98419.38;;;11.16;75.87
65666;BME280;52365;47.464;18.976;2023-04-01T00:52:55;98409.56;;;11.07;76.06
65666;BME280;52365;47.464;18.976;2023-04-01T00:53:33;98411.50;;;11.01;76.34
65666;BME280;52365;47.464;18.976;2023-04-01T00:54:11;98417.66;;;11.07;76.52
65666;BME280;52365;47.464;18.976;2023-04-01T00:54:50;98414.47;;;11.14;76.32
65666;BME280;52365;47.464;18.976;2023-04-01T00:55:29;98410.31;;;11.02;76.46
65666;BME280;52365;47.464;18.976;2023-04-01T00:56:11;98403.69;;;11.03;76.39
65666;BME280;52365;47.464;18.976;2023-04-01T00:56:53;98404.16;;;11.01;76.48
65666;BME280;52365;47.464;18.976;2023-04-01T00:57:34;98402.94;;;11.08;76.48
65666;BME280;52365;47.464;18.976;2023-04-01T00:58:15;98407.37;;;11.11;76.41
65666;BME280;52365;47.464;18.976;2023-04-01T00:59:00;98405.38;;;11.23;76.14
65666;BME280;52365;47.464;18.976;2023-04-01T00:59:41;98409.31;;;11.27;75.79
65666;BME280;52365;47.464;18.976;2023-04-01T01:00:19;98413.72;;;11.19;75.89
65666;BME280;52365;47.464;18.976;2023-04-01T01:00:56;98404.66;;;11.17;75.90
65666;BME280;52365;47.464;18.976;2023-04-01T01:01:35;98411.25;;;11.32;75.78
65666;BME280;52365;47.464;18.976;2023-04-01T01:02:12;98411.78;;;11.25;75.63
65666;BME280;52365;47.464;18.976;2023-04-01T01:02:50;98406.63;;;11.16;75.78
65666;BME280;52365;47.464;18.976;2023-04-01T01:03:27;98412.50;;;11.20;75.96
65666;BME280;52365;47.464;18.976;2023-04-01T01:04:03;98411.78;;;11.20;75.96
65666;BME280;52365;47.464;18.976;2023-04-01T01:04:39;98408.59;;;11.21;75.99
65666;BME280;52365;47.464;18.976;2023-04-01T01:05:16;98412.00;;;11.10;75.98
65666;BME280;52365;47.464;18.976;2023-04-01T01:08:24;98412.50;;;11.09;76.32
65666;BME280;52365;47.464;18.976;2023-04-01T01:10:39;98410.53;;;11.26;75.89
65666;BME280;52365;47.464;18.976;2023-04-01T01:11:22;98413.50;;;11.34;75.57
65666;BME280;52365;47.464;18.976;2023-04-01T01:12:07;98409.06;;;11.31;75.27
65666;BME280;52365;47.464;18.976;2023-04-01T01:13:43;98418.63;;;11.26;75.35
65666;BME280;52365;47.464;18.976;2023-04-01T01:16:25;98410.75;;;11.06;76.25
65666;BME280;52365;47.464;18.976;2023-04-01T01:17:14;98414.47;;;11.20;76.01
65666;BME280;52365;47.464;18.976;2023-04-01T01:18:22;98420.34;;;11.18;75.82
65666;BME280;52365;47.464;18.976;2023-04-01T01:22:21;98412.50;;;11.26;75.54
65666;BME280;52365;47.464;18.976;2023-04-01T01:27:31;98406.63;;;11.55;74.75
65666;BME280;52365;47.464;18.976;2023-04-01T01:28:19;98402.91;;;11.64;74.49
65666;BME280;52365;47.464;18.976;2023-04-01T01:29:12;98399.94;;;11.84;73.81
65666;BME280;52365;47.464;18.976;2023-04-01T01:31:18;98403.38;;;11.91;73.12
65666;BME280;52365;47.464;18.976;2023-04-01T01:33:08;98407.72;;;12.16;71.88
65666;BME280;52365;47.464;18.976;2023-04-01T01:34:00;98403.09;;;12.05;71.88
65666;BME280;52365;47.464;18.976;2023-04-01T01:35:50;98408.09;;;12.43;70.79
65666;BME280;52365;47.464;18.976;2023-04-01T01:36:31;98403.03;;;12.22;70.90
65666;BME280;52365;47.464;18.976;2023-04-01T01:37:13;98403.50;;;12.26;71.23
65666;BME280;52365;47.464;18.976;2023-04-01T01:37:55;98402.00;;;12.31;70.98
65666;BME280;52365;47.464;18.976;2023-04-01T01:38:34;98397.84;;;12.24;70.97
65666;BME280;52365;47.464;18.976;2023-04-01T01:39:12;98399.87;;;12.13;71.37
65666;BME280;52365;47.464;18.976;2023-04-01T01:39:54;98398.91;;;12.10;71.60
65666;BME280;52365;47.464;18.976;2023-04-01T01:40:33;98400.94;;;11.87;72.26
65666;BME280;52365;47.464;18.976;2023-04-01T01:41:10;98403.41;;;11.68;73.25
65666;BME280;52365;47.464;18.976;2023-04-01T01:41:49;98401.41;;;11.91;73.22
65666;BME280;52365;47.464;18.976;2023-04-01T01:42:26;98405.56;;;11.92;72.89
65666;BME280;52365;47.464;18.976;2023-04-01T01:43:08;98399.97;;;11.62;73.40
65666;BME280;52365;47.464;18.976;2023-04-01T01:43:48;98396.31;;;11.43;74.22
65666;BME280;52365;47.464;18.976;2023-04-01T01:44:28;98398.28;;;11.48;74.67
65666;BME280;52365;47.464;18.976;2023-04-01T01:45:06;98395.81;;;11.61;74.62
65666;BME280;52365;47.464;18.976;2023-04-01T01:45:47;98397.28;;;11.62;74.50
65666;BME280;52365;47.464;18.976;2023-04-01T01:46:26;98398.75;;;11.57;74.47
65666;BME280;52365;47.464;18.976;2023-04-01T01:47:03;98397.78;;;11.60;74.59
65666;BME280;52365;47.464;18.976;2023-04-01T01:47:41;98400.69;;;11.63;74.62
65666;BME280;52365;47.464;18.976;2023-04-01T01:48:18;98398.75;;;11.52;74.58
65666;BME280;52365;47.464;18.976;2023-04-01T01:48:56;98400.19;;;11.81;74.35
65666;BME280;52365;47.464;18.976;2023-04-01T01:49:34;98405.34;;;11.73;74.07
65666;BME280;52365;47.464;18.976;2023-04-01T01:50:12;98403.88;;;11.67;74.04
65666;BME280;52365;47.464;18.976;2023-04-01T01:50:49;98401.69;;;11.54;74.36
65666;BME280;52365;47.464;18.976;2023-04-01T01:51:27;98401.47;;;11.46;74.67
65666;BME280;52365;47.464;18.976;2023-04-01T01:52:03;98399.50;;;11.19;75.36
65666;BME280;52365;47.464;18.976;2023-04-01T01:52:39;98400.00;;;11.23;75.94
65666;BME280;52365;47.464;18.976;2023-04-01T01:53:16;98399.03;;;11.43;75.68
65666;BME280;52365;47.464;18.976;2023-04-01T01:53:52;98397.31;;;11.34;75.48
65666;BME280;52365;47.464;18.976;2023-04-01T01:54:28;98403.91;;;11.50;75.34
65666;BME280;52365;47.464;18.976;2023-04-01T01:55:27;98406.38;;;11.48;74.81
65666;BME280;52365;47.464;18.976;2023-04-01T01:56:04;98403.41;;;11.57;74.81
65666;BME280;52365;47.464;18.976;2023-04-01T01:56:43;98397.28;;;11.62;74.38
65666;BME280;52365;47.464;18.976;2023-04-01T01:57:26;98401.44;;;11.69;74.09
65666;BME280;52365;47.464;18.976;2023-04-01T01:58:23;98404.62;;;11.84;73.46
65666;BME280;52365;47.464;18.976;2023-04-01T01:59:03;98403.66;;;11.65;73.16
65666;BME280;52365;47.464;18.976;2023-04-01T01:59:43;98405.38;;;11.62;73.39
65666;BME280;52365;47.464;18.976;2023-04-01T02:00:21;98397.53;;;11.64;73.17
65666;BME280;52365;47.464;18.976;2023-04-01T02:00:59;98398.25;;;11.65;73.09
65666;BME280;52365;47.464;18.976;2023-04-01T02:01:39;98406.56;;;11.78;72.61
65666;BME280;52365;47.464;18.976;2023-04-01T02:02:17;98393.28;;;11.97;71.59
65666;BME280;52365;47.464;18.976;2023-04-01T02:02:54;98395.50;;;11.93;71.37
65666;BME280;52365;47.464;18.976;2023-04-01T02:03:34;98396.03;;;11.74;71.69
65666;BME280;52365;47.464;18.976;2023-04-01T02:04:13;98399.50;;;11.52;72.68
65666;BME280;52365;47.464;18.976;2023-04-01T02:04:51;98398.00;;;11.63;72.80
65666;BME280;52365;47.464;18.976;2023-04-01T02:05:29;98399.47;;;11.69;72.19
65666;BME280;52365;47.464;18.976;2023-04-01T02:06:11;98389.41;;;11.87;71.39
65666;BME280;52365;47.464;18.976;2023-04-01T02:06:53;98390.91;;;11.65;71.36
65666;BME280;52365;47.464;18.976;2023-04-01T02:07:33;98391.38;;;11.69;71.53
65666;BME280;52365;47.464;18.976;2023-04-01T02:08:17;98397.03;;;11.82;71.20
65666;BME280;52365;47.464;18.976;2023-04-01T02:09:00;98393.28;;;12.08;69.94
65666;BME280;52365;47.464;18.976;2023-04-01T02:09:39;98392.25;;;12.17;69.36
65666;BME280;52365;47.464;18.976;2023-04-01T02:10:16;98391.06;;;12.01;68.91
65666;BME280;52365;47.464;18.976;2023-04-01T02:10:59;98391.03;;;12.06;69.12
65666;BME280;52365;47.464;18.976;2023-04-01T02:11:52;98389.72;;;12.35;68.39
65666;BME280;52365;47.464;18.976;2023-04-01T02:12:30;98386.53;;;12.31;67.80
65666;BME280;52365;47.464;18.976;2023-04-01T02:13:18;98393.16;;;12.36;67.86
65666;BME280;52365;47.464;18.976;2023-04-01T02:14:11;98388.94;;;12.41;67.71
65666;BME280;52365;47.464;18.976;2023-04-01T02:14:53;98392.72;;;12.21;68.12
65666;BME280;52365;47.464;18.976;2023-04-01T02:15:33;98386.66;;;12.03;68.31
65666;BME280;52365;47.464;18.976;2023-04-01T02:16:18;98395.91;;;12.19;68.54
65666;BME280;52365;47.464;18.976;2023-04-01T02:17:07;98389.47;;;12.33;67.89
65666;BME280;52365;47.464;18.976;2023-04-01T02:17:45;98387.25;;;12.32;67.62
65666;BME280;52365;47.464;18.976;2023-04-01T02:18:23;98385.75;;;12.42;67.57
65666;BME280;52365;47.464;18.976;2023-04-01T02:19:01;98384.31;;;12.35;67.53
65666;BME280;52365;47.464;18.976;2023-04-01T02:19:42;98387.81;;;12.19;67.82
65666;BME280;52365;47.464;18.976;2023-04-01T02:20:22;98382.38;;;12.30;67.99
65666;BME280;52365;47.464;18.976;2023-04-01T02:21:00;98381.34;;;12.39;67.90
65666;BME280;52365;47.464;18.976;2023-04-01T02:21:37;98382.59;;;12.32;67.89
65666;BME280;52365;47.464;18.976;2023-04-01T02:22:18;98383.53;;;12.41;67.53
65666;BME280;52365;47.464;18.976;2023-04-01T02:22:56;98382.09;;;12.40;67.70
65666;BME280;52365;47.464;18.976;2023-04-01T02:23:36;98380.06;;;12.46;67.45
65666;BME280;52365;47.464;18.976;2023-04-01T02:24:14;98380.91;;;12.29;67.81
65666;BME280;52365;47.464;18.976;2023-04-01T02:24:54;98376.72;;;12.28;67.71
65666;BME280;52365;47.464;18.976;2023-04-01T02:25:35;98373.00;;;12.37;67.61
65666;BME280;52365;47.464;18.976;2023-04-01T02:26:12;98376.69;;;12.40;67.37
65666;BME280;52365;47.464;18.976;2023-04-01T02:26:51;98373.50;;;12.35;67.47
65666;BME280;52365;47.464;18.976;2023-04-01T02:27:28;98377.25;;;12.21;67.77
65666;BME280;52365;47.464;18.976;2023-04-01T02:28:06;98369.91;;;12.16;68.04
65666;BME280;52365;47.464;18.976;2023-04-01T02:28:45;98381.72;;;12.13;67.99
65666;BME280;52365;47.464;18.976;2023-04-01T02:29:23;98379.78;;;12.08;68.58
65666;BME280;52365;47.464;18.976;2023-04-01T02:30:01;98375.81;;;12.09;69.12
65666;BME280;52365;47.464;18.976;2023-04-01T02:30:39;98373.78;;;12.26;68.42
65666;BME280;52365;47.464;18.976;2023-04-01T02:31:16;98375.81;;;12.15;68.43
65666;BME280;52365;47.464;18.976;2023-04-01T02:31:53;98373.34;;;12.11;68.51
65666;BME280;52365;47.464;18.976;2023-04-01T02:32:32;98376.78;;;12.17;68.46
65666;BME280;52365;47.464;18.976;2023-04-01T02:33:09;98374.06;;;12.23;68.33
65666;BME280;52365;47.464;18.976;2023-04-01T02:33:46;98367.91;;;12.22;67.84
65666;BME280;52365;47.464;18.976;2023-04-01T02:34:24;98372.34;;;12.20;67.77
65666;BME280;52365;47.464;18.976;2023-04-01T02:35:01;98379.03;;;12.07;68.21
65666;BME280;52365;47.464;18.976;2023-04-01T02:35:41;98369.19;;;12.10;68.44
65666;BME280;52365;47.464;18.976;2023-04-01T02:36:17;98371.63;;;12.14;68.40
65666;BME280;52365;47.464;18.976;2023-04-01T02:36:55;98378.25;;;12.18;68.23
65666;BME280;52365;47.464;18.976;2023-04-01T02:37:32;98379.03;;;12.07;68.23
65666;BME280;52365;47.464;18.976;2023-04-01T02:38:08;98364.53;;;12.10;68.54
65666;BME280;52365;47.464;18.976;2023-04-01T02:38:45;98372.63;;;12.16;68.58
65666;BME280;52365;47.464;18.976;2023-04-01T02:39:21;98369.47;;;12.01;68.57
65666;BME280;52365;47.464;18.976;2023-04-01T02:40:06;98373.88;;;12.09;68.69
65666;BME280;52365;47.464;18.976;2023-04-01T02:40:47;98374.38;;;12.02;68.61
65666;BME280;52365;47.464;18.976;2023-04-01T02:41:23;98376.13;;;12.00;68.81
65666;BME280;52365;47.464;18.976;2023-04-01T02:42:00;98366.75;;;12.12;68.64
65666;BME280;52365;47.464;18.976;2023-04-01T02:42:36;98373.06;;;12.20;68.28
65666;BME280;52365;47.464;18.976;2023-04-01T02:43:12;98373.47;;;12.41;67.42
65666;BME280;52365;47.464;18.976;2023-04-01T02:43:49;98372.28;;;12.31;67.26
65666;BME280;52365;47.464;18.976;2023-04-01T02:44:25;98370.47;;;12.56;66.61
65666;BME280;52365;47.464;18.976;2023-04-01T02:45:01;98375.41;;;12.46;66.36
65666;BME280;52365;47.464;18.976;2023-04-01T02:45:38;98371.06;;;12.32;66.63
65666;BME280;52365;47.464;18.976;2023-04-01T02:46:14;98372.22;;;12.48;66.51
65666;BME280;52365;47.464;18.976;2023-04-01T02:46:50;98378.81;;;12.52;66.41
65666;BME280;52365;47.464;18.976;2023-04-01T02:47:26;98373.38;;;12.58;66.34
65666;BME280;52365;47.464;18.976;2023-04-01T02:48:02;98375.09;;;12.55;66.22
65666;BME280;52365;47.464;18.976;2023-04-01T02:48:38;98379.13;;;12.43;66.51
65666;BME280;52365;47.464;18.976;2023-04-01T02:49:14;98377.50;;;12.18;67.29
65666;BME280;52365;47.464;18.976;2023-04-01T02:49:50;98377.53;;;12.06;67.97
65666;BME280;52365;47.464;18.976;2023-04-01T02:50:26;98382.47;;;12.02;68.31
65666;BME280;52365;47.464;18.976;2023-04-01T02:51:03;98379.09;;;11.91;68.82
65666;BME280;52365;47.464;18.976;2023-04-01T02:51:39;98380.31;;;11.84;69.14
65666;BME280;52365;47.464;18.976;2023-04-01T02:52:15;98382.28;;;11.95;69.09
65666;BME280;52365;47.464;18.976;2023-04-01T02:52:51;98384.06;;;11.47;70.12
65666;BME280;52365;47.464;18.976;2023-04-01T02:53:27;98387.25;;;11.34;71.10
65666;BME280;52365;47.464;18.976;2023-04-01T02:54:03;98383.81;;;11.51;71.15
65666;BME280;52365;47.464;18.976;2023-04-01T02:54:39;98382.28;;;11.95;70.29
65666;BME280;52365;47.464;18.976;2023-04-01T02:55:16;98386.38;;;12.07;69.34
65666;BME280;52365;47.464;18.976;2023-04-01T02:55:52;98393.78;;;12.01;69.22
65666;BME280;52365;47.464;18.976;2023-04-01T02:56:28;98382.47;;;12.02;69.11
65666;BME280;52365;47.464;18.976;2023-04-01T02:57:05;98378.53;;;12.09;69.04
65666;BME280;52365;47.464;18.976;2023-04-01T02:57:41;98380.72;;;12.10;69.05
65666;BME280;52365;47.464;18.976;2023-04-01T02:58:17;98389.88;;;11.96;69.25
65666;BME280;52365;47.464;18.976;2023-04-01T02:58:53;98385.72;;;11.84;69.49
65666;BME280;52365;47.464;18.976;2023-04-01T02:59:30;98389.41;;;11.81;69.77
65666;BME280;52365;47.464;18.976;2023-04-01T03:00:06;98386.72;;;11.87;69.83
65666;BME280;52365;47.464;18.976;2023-04-01T03:00:46;98391.88;;;11.73;70.01
65666;BME280;52365;47.464;18.976;2023-04-01T03:01:22;98388.19;;;11.54;70.58
65666;BME280;52365;47.464;18.976;2023-04-01T03:01:59;98387.75;;;11.39;71.34
65666;BME280;52365;47.464;18.976;2023-04-01T03:02:35;98389.66;;;11.83;70.78
65666;BME280;52365;47.464;18.976;2023-04-01T03:03:12;98378.59;;;11.81;70.41
65666;BME280;52365;47.464;18.976;2023-04-01T03:03:49;98385.72;;;11.67;70.79
65666;BME280;52365;47.464;18.976;2023-04-01T03:04:25;98380.84;;;11.60;70.61
65666;BME280;52365;47.464;18.976;2023-04-01T03:05:01;98380.84;;;11.60;70.98
65666;BME280;52365;47.464;18.976;2023-04-01T03:05:37;98384.53;;;11.40;71.33
65666;BME280;52365;47.464;18.976;2023-04-01T03:06:15;98385.03;;;10.82;73.04
65666;BME280;52365;47.464;18.976;2023-04-01T03:06:51;98385.03;;;10.88;73.80
65666;BME280;52365;47.464;18.976;2023-04-01T03:07:27;98393.37;;;11.07;73.76
65666;BME280;52365;47.464;18.976;2023-04-01T03:08:03;98385.53;;;11.09;73.56
65666;BME280;52365;47.464;18.976;2023-04-01T03:08:40;98387.75;;;11.16;73.35
65666;BME280;52365;47.464;18.976;2023-04-01T03:09:16;98398.28;;;11.03;73.70
65666;BME280;52365;47.464;18.976;2023-04-01T03:09:52;98397.28;;;10.89;74.42
65666;BME280;52365;47.464;18.976;2023-04-01T03:10:28;98385.28;;;11.18;73.81
65666;BME280;52365;47.464;18.976;2023-04-01T03:11:04;98387.50;;;11.31;73.37
65666;BME280;52365;47.464;18.976;2023-04-01T03:11:41;98383.34;;;11.13;73.29
65666;BME280;52365;47.464;18.976;2023-04-01T03:12:17;98379.91;;;11.13;73.64
65666;BME280;52365;47.464;18.976;2023-04-01T03:12:53;98382.59;;;11.01;73.52
65666;BME280;52365;47.464;18.976;2023-04-01T03:13:30;98378.91;;;11.27;73.42
65666;BME280;52365;47.464;18.976;2023-04-01T03:14:06;98385.75;;;11.45;72.67
65666;BME280;52365;47.464;18.976;2023-04-01T03:14:42;98383.31;;;11.64;71.93
65666;BME280;52365;47.464;18.976;2023-04-01T03:15:18;98382.31;;;11.72;71.25
65666;BME280;52365;47.464;18.976;2023-04-01T03:15:54;98383.84;;;11.28;71.54
65666;BME280;52365;47.464;18.976;2023-04-01T03:16:31;98376.66;;;10.69;73.45
65666;BME280;52365;47.464;18.976;2023-04-01T03:17:07;98377.66;;;10.77;74.29
65666;BME280;52365;47.464;18.976;2023-04-01T03:17:43;98371.31;;;10.86;74.32
65666;BME280;52365;47.464;18.976;2023-04-01T03:18:19;98373.50;;;10.88;74.41
65666;BME280;52365;47.464;18.976;2023-04-01T03:18:55;98380.84;;;10.93;74.18
65666;BME280;52365;47.464;18.976;2023-04-01T03:19:34;98375.22;;;10.91;73.96
65666;BME280;52365;47.464;18.976;2023-04-01T03:20:11;98381.59;;;11.04;73.84
65666;BME280;52365;47.464;18.976;2023-04-01T03:20:47;98376.22;;;10.99;73.69
65666;BME280;52365;47.464;18.976;2023-04-01T03:21:23;98381.38;;;11.08;73.42
65666;BME280;52365;47.464;18.976;2023-04-01T03:22:00;98376.47;;;10.90;73.33
65666;BME280;52365;47.464;18.976;2023-04-01T03:22:36;98378.66;;;10.80;73.89
65666;BME280;52365;47.464;18.976;2023-04-01T03:23:13;98386.50;;;10.89;73.96
65666;BME280;52365;47.464;18.976;2023-04-01T03:23:49;98384.28;;;10.88;73.93
65666;BME280;52365;47.464;18.976;2023-04-01T03:24:25;98390.19;;;10.86;74.06
65666;BME280;52365;47.464;18.976;2023-04-01T03:25:02;98391.44;;;11.07;73.54
65666;BME280;52365;47.464;18.976;2023-04-01T03:25:38;98387.72;;;11.05;73.31
65666;BME280;52365;47.464;18.976;2023-04-01T03:26:15;98379.91;;;11.07;73.15
65666;BME280;52365;47.464;18.976;2023-04-01T03:26:51;98390.41;;;10.88;73.38
65666;BME280;52365;47.464;18.976;2023-04-01T03:27:27;98395.06;;;10.76;73.74
65666;BME280;52365;47.464;18.976;2023-04-01T03:28:03;98395.06;;;10.76;73.90
65666;BME280;52365;47.464;18.976;2023-04-01T03:28:40;98389.91;;;10.73;74.12
65666;BME280;52365;47.464;18.976;2023-04-01T03:29:16;98388.69;;;10.79;74.04
65666;BME280;52365;47.464;18.976;2023-04-01T03:29:52;98395.53;;;10.64;74.26
65666;BME280;52365;47.464;18.976;2023-04-01T03:30:28;98389.88;;;10.62;74.59
65666;BME280;52365;47.464;18.976;2023-04-01T03:31:07;98395.78;;;10.71;74.17
65666;BME280;52365;47.464;18.976;2023-04-01T03:31:43;98391.59;;;10.70;73.91
65666;BME280;52365;47.464;18.976;2023-04-01T03:32:20;98392.59;;;10.67;73.88
65666;BME280;52365;47.464;18.976;2023-04-01T03:32:56;98391.63;;;10.76;73.78
65666;BME280;52365;47.464;18.976;2023-04-01T03:33:33;98386.47;;;10.72;73.52
65666;BME280;52365;47.464;18.976;2023-04-01T03:34:09;98393.81;;;10.66;73.62
65666;BME280;52365;47.464;18.976;2023-04-01T03:34:45;98399.47;;;10.68;73.62
65666;BME280;52365;47.464;18.976;2023-04-01T03:35:21;98392.84;;;10.69;73.46
65666;BME280;52365;47.464;18.976;2023-04-01T03:35:57;98398.50;;;10.82;73.09
65666;BME280;52365;47.464;18.976;2023-04-01T03:36:34;98399.00;;;10.81;72.81
65666;BME280;52365;47.464;18.976;2023-04-01T03:37:10;98398.00;;;10.84;72.86
65666;BME280;52365;47.464;18.976;2023-04-01T03:37:46;98397.25;;;10.83;72.63
65666;BME280;52365;47.464;18.976;2023-04-01T03:38:22;98402.66;;;10.72;72.80
65666;BME280;52365;47.464;18.976;2023-04-01T03:38:58;98398.00;;;10.67;73.13